sensor_id;sensor_type;location;lat;lon;timestamp;temperature;humidity
3406;DHT22;10008;48.682;9.016;2023-08-24T00:01:07;19.80;99.90
3406;DHT22;10008;48.682;9.016;2023-08-24T00:03:34;19.90;99.90
3406;DHT22;10008;48.682;9.016;2023-08-24T00:06:00;19.70;99.90
3406;DHT22;10008;48.682;9.016;2023-08-24T00:08:26;19.70;99.90
3406;DHT22;10008;48.682;9.016;2023-08-24T00:10:52;19.80;99.90
3406;DHT22;10008;48.682;9.016;2023-08-24T00:13:18;19.90;99.90
3406;DHT22;10008;48.682;9.016;2023-08-24T00:15:45;19.90;99.90
3406;DHT22;10008;48.682;9.016;2023-08-24T00:18:10;19.90;99.90
3406;DHT22;10008;48.682;9.016;2023-08-24T00:20:36;19.80;99.90
3406;DHT22;10008;48.682;9.016;2023-08-24T00:23:02;19.80;99.90
3406;DHT22;10008;48.682;9.016;2023-08-24T00:25:29;19.70;99.90
3406;DHT22;10008;48.682;9.016;2023-08-24T00:27:55;19.60;99.90
3406;DHT22;10008;48.682;9.016;2023-08-24T00:30:21;19.60;99.90
3406;DHT22;10008;48.682;9.016;2023-08-24T00:32:47;19.60;99.90
3406;DHT22;10008;48.682;9.016;2023-08-24T00:35:13;19.40;99.90
3406;DHT22;10008;48.682;9.016;2023-08-24T00:37:39;19.30;99.90
3406;DHT22;10008;48.682;9.016;2023-08-24T00:40:06;19.30;99.90
3406;DHT22;10008;48.682;9.016;2023-08-24T00:42:39;19.30;99.90
3406;DHT22;10008;48.682;9.016;2023-08-24T00:45:06;19.30;99.90
3406;DHT22;10008;48.682;9.016;2023-08-24T00:47:33;19.30;99.90
3406;DHT22;10008;48.682;9.016;2023-08-24T00:50:02;19.30;99.90
3406;DHT22;10008;48.682;9.016;2023-08-24T00:52:31;19.20;99.90
3406;DHT22;10008;48.682;9.016;2023-08-24T00:55:01;19.20;99.90
3406;DHT22;10008;48.682;9.016;2023-08-24T00:57:29;19.00;99.90
3406;DHT22;10008;48.682;9.016;2023-08-24T00:59:57;19.00;99.90
3406;DHT22;10008;48.682;9.016;2023-08-24T01:02:24;18.90;99.90
3406;DHT22;10008;48.682;9.016;2023-08-24T01:04:52;18.80;99.90
3406;DHT22;10008;48.682;9.016;2023-08-24T01:07:18;18.80;99.90
3406;DHT22;10008;48.682;9.016;2023-08-24T01:09:45;18.90;99.90
3406;DHT22;10008;48.682;9.016;2023-08-24T01:12:32;18.90;99.90
3406;DHT22;10008;48.682;9.016;2023-08-24T01:15:07;18.80;99.90
3406;DHT22;10008;48.682;9.016;2023-08-24T01:17:36;18.80;99.90
3406;DHT22;10008;48.682;9.016;2023-08-24T01:20:04;18.70;99.90
3406;DHT22;10008;48.682;9.016;2023-08-24T01:22:34;18.70;99.90
3406;DHT22;10008;48.682;9.016;2023-08-24T01:27:43;18.60;99.90
3406;DHT22;10008;48.682;9.016;2023-08-24T01:30:10;18.60;99.90
3406;DHT22;10008;48.682;9.016;2023-08-24T01:32:36;18.60;99.90
3406;DHT22;10008;48.682;9.016;2023-08-24T01:35:05;18.60;99.90
3406;DHT22;10008;48.682;9.016;2023-08-24T01:37:35;18.60;99.90
3406;DHT22;10008;48.682;9.016;2023-08-24T01:40:12;18.70;99.90
3406;DHT22;10008;48.682;9.016;2023-08-24T01:42:48;18.80;99.90
3406;DHT22;10008;48.682;9.016;2023-08-24T01:45:17;18.80;99.90
3406;DHT22;10008;48.682;9.016;2023-08-24T01:47:46;18.80;99.90
3406;DHT22;10008;48.682;9.016;2023-08-24T01:50:13;18.90;99.90
3406;DHT22;10008;48.682;9.016;2023-08-24T01:52:40;18.80;99.90
3406;DHT22;10008;48.682;9.016;2023-08-24T01:55:07;18.70;99.90
3406;DHT22;10008;48.682;9.016;2023-08-24T01:57:33;18.70;99.90
3406;DHT22;10008;48.682;9.016;2023-08-24T01:59:58;18.80;99.90
3406;DHT22;10008;48.682;9.016;2023-08-24T02:02:24;18.80;99.90
3406;DHT22;10008;48.682;9.016;2023-08-24T02:04:50;18.90;99.90
3406;DHT22;10008;48.682;9.016;2023-08-24T02:07:16;19.00;99.90
3406;DHT22;10008;48.682;9.016;2023-08-24T02:09:42;19.00;99.90
3406;DHT22;10008;48.682;9.016;2023-08-24T02:12:08;19.00;99.90
3406;DHT22;10008;48.682;9.016;2023-08-24T02:14:34;19.00;99.90
3406;DHT22;10008;48.682;9.016;2023-08-24T02:16:59;19.00;99.90
3406;DHT22;10008;48.682;9.016;2023-08-24T02:19:25;19.00;99.90
3406;DHT22;10008;48.682;9.016;2023-08-24T02:21:51;18.90;99.90
3406;DHT22;10008;48.682;9.016;2023-08-24T02:24:16;18.80;99.90
3406;DHT22;10008;48.682;9.016;2023-08-24T02:26:42;18.80;99.90
3406;DHT22;10008;48.682;9.016;2023-08-24T02:29:08;18.90;99.90
3406;DHT22;10008;48.682;9.016;2023-08-24T02:31:34;19.10;99.90
3406;DHT22;10008;48.682;9.016;2023-08-24T02:34:00;19.10;99.90
3406;DHT22;10008;48.682;9.016;2023-08-24T02:36:26;19.10;99.90
3406;DHT22;10008;48.682;9.016;2023-08-24T02:38:51;19.00;99.90
3406;DHT22;10008;48.682;9.016;2023-08-24T02:41:17;19.00;99.90
3406;DHT22;10008;48.682;9.016;2023-08-24T02:43:43;19.00;99.90
3406;DHT22;10008;48.682;9.016;2023-08-24T02:46:09;19.00;99.90
3406;DHT22;10008;48.682;9.016;2023-08-24T02:48:36;19.00;99.90
3406;DHT22;10008;48.682;9.016;2023-08-24T02:51:04;19.00;99.90
3406;DHT22;10008;48.682;9.016;2023-08-24T02:53:30;19.10;99.90
3406;DHT22;10008;48.682;9.016;2023-08-24T02:55:57;19.20;99.90
3406;DHT22;10008;48.682;9.016;2023-08-24T02:58:23;19.00;99.90
3406;DHT22;10008;48.682;9.016;2023-08-24T03:00:49;18.90;99.90
3406;DHT22;10008;48.682;9.016;2023-08-24T03:03:15;19.00;99.90
3406;DHT22;10008;48.682;9.016;2023-08-24T03:05:51;19.00;99.90
3406;DHT22;10008;48.682;9.016;2023-08-24T03:08:17;19.00;99.90
3406;DHT22;10008;48.682;9.016;2023-08-24T03:10:43;18.90;99.90
3406;DHT22;10008;48.682;9.016;2023-08-24T03:13:08;18.80;99.90
3406;DHT22;10008;48.682;9.016;2023-08-24T03:15:35;18.80;99.90
3406;DHT22;10008;48.682;9.016;2023-08-24T03:18:01;18.70;99.90
3406;DHT22;10008;48.682;9.016;2023-08-24T03:20:26;18.70;99.90
3406;DHT22;10008;48.682;9.016;2023-08-24T03:22:54;18.70;99.90
3406;DHT22;10008;48.682;9.016;2023-08-24T03:25:20;18.70;99.90
3406;DHT22;10008;48.682;9.016;2023-08-24T03:27:46;18.70;99.90
3406;DHT22;10008;48.682;9.016;2023-08-24T03:30:13;18.60;99.90
3406;DHT22;10008;48.682;9.016;2023-08-24T03:32:40;18.60;99.90
3406;DHT22;10008;48.682;9.016;2023-08-24T03:35:06;18.70;99.90
3406;DHT22;10008;48.682;9.016;2023-08-24T03:37:33;18.60;99.90
3406;DHT22;10008;48.682;9.016;2023-08-24T03:39:58;18.60;99.90
3406;DHT22;10008;48.682;9.016;2023-08-24T03:42:24;18.60;99.90
3406;DHT22;10008;48.682;9.016;2023-08-24T03:44:50;18.50;99.90
3406;DHT22;10008;48.682;9.016;2023-08-24T03:47:16;18.50;99.90
3406;DHT22;10008;48.682;9.016;2023-08-24T03:49:43;18.50;99.90
3406;DHT22;10008;48.682;9.016;2023-08-24T03:52:09;18.50;99.90
3406;DHT22;10008;48.682;9.016;2023-08-24T03:54:35;18.50;99.90
3406;DHT22;10008;48.682;9.016;2023-08-24T03:57:01;18.50;99.90
3406;DHT22;10008;48.682;9.016;2023-08-24T03:59:27;18.70;99.90
3406;DHT22;10008;48.682;9.016;2023-08-24T04:01:53;18.80;99.90
3406;DHT22;10008;48.682;9.016;2023-08-24T04:04:20;18.90;99.90
3406;DHT22;10008;48.682;9.016;2023-08-24T04:06:45;18.90;99.90
3406;DHT22;10008;48.682;9.016;2023-08-24T04:09:11;18.80;99.90
3406;DHT22;10008;48.682;9.016;2023-08-24T04:11:37;18.90;99.90
3406;DHT22;10008;48.682;9.016;2023-08-24T04:14:02;18.90;99.90
3406;DHT22;10008;48.682;9.016;2023-08-24T04:16:28;18.90;99.90
3406;DHT22;10008;48.682;9.016;2023-08-24T04:18:54;18.80;99.90
3406;DHT22;10008;48.682;9.016;2023-08-24T04:21:20;18.70;99.90
3406;DHT22;10008;48.682;9.016;2023-08-24T04:23:45;18.70;99.90
3406;DHT22;10008;48.682;9.016;2023-08-24T04:26:12;18.60;99.90
3406;DHT22;10008;48.682;9.016;2023-08-24T04:28:38;18.60;99.90
3406;DHT22;10008;48.682;9.016;2023-08-24T04:31:04;18.60;99.90
3406;DHT22;10008;48.682;9.016;2023-08-24T04:33:30;18.80;99.90
3406;DHT22;10008;48.682;9.016;2023-08-24T04:35:56;18.90;99.90
3406;DHT22;10008;48.682;9.016;2023-08-24T04:38:21;18.90;99.90
3406;DHT22;10008;48.682;9.016;2023-08-24T04:40:53;18.90;99.90
3406;DHT22;10008;48.682;9.016;2023-08-24T04:43:21;19.10;99.90
3406;DHT22;10008;48.682;9.016;2023-08-24T04:45:51;19.20;99.90
3406;DHT22;10008;48.682;9.016;2023-08-24T04:48:24;19.20;99.90
3406;DHT22;10008;48.682;9.016;2023-08-24T04:50:50;19.20;99.90
3406;DHT22;10008;48.682;9.016;2023-08-24T04:53:17;19.20;99.90
3406;DHT22;10008;48.682;9.016;2023-08-24T04:55:44;19.20;99.90
3406;DHT22;10008;48.682;9.016;2023-08-24T04:58:10;19.10;99.90
3406;DHT22;10008;48.682;9.016;2023-08-24T05:00:37;19.10;99.90
3406;DHT22;10008;48.682;9.016;2023-08-24T05:03:04;19.20;99.90
3406;DHT22;10008;48.682;9.016;2023-08-24T05:05:31;19.30;99.90
3406;DHT22;10008;48.682;9.016;2023-08-24T05:07:58;19.30;99.90
3406;DHT22;10008;48.682;9.016;2023-08-24T05:10:24;19.40;99.90
3406;DHT22;10008;48.682;9.016;2023-08-24T05:12:50;19.50;99.90
3406;DHT22;10008;48.682;9.016;2023-08-24T05:15:16;19.60;99.90
3406;DHT22;10008;48.682;9.016;2023-08-24T05:17:42;19.70;99.90
3406;DHT22;10008;48.682;9.016;2023-08-24T05:20:08;19.80;99.90
3406;DHT22;10008;48.682;9.016;2023-08-24T05:22:40;19.80;99.90
3406;DHT22;10008;48.682;9.016;2023-08-24T05:25:06;19.90;99.90
3406;DHT22;10008;48.682;9.016;2023-08-24T05:27:32;20.00;99.90
3406;DHT22;10008;48.682;9.016;2023-08-24T05:29:58;20.20;99.90
3406;DHT22;10008;48.682;9.016;2023-08-24T05:32:24;20.30;99.90
3406;DHT22;10008;48.682;9.016;2023-08-24T05:34:50;20.20;99.90
3406;DHT22;10008;48.682;9.016;2023-08-24T05:37:16;20.10;99.90
3406;DHT22;10008;48.682;9.016;2023-08-24T05:39:42;20.10;99.90
3406;DHT22;10008;48.682;9.016;2023-08-24T05:42:08;20.20;99.90
3406;DHT22;10008;48.682;9.016;2023-08-24T05:44:34;20.20;99.90
3406;DHT22;10008;48.682;9.016;2023-08-24T05:47:00;20.30;99.90
3406;DHT22;10008;48.682;9.016;2023-08-24T05:49:26;20.30;99.90
3406;DHT22;10008;48.682;9.016;2023-08-24T05:51:52;20.50;99.90
3406;DHT22;10008;48.682;9.016;2023-08-24T05:54:18;20.70;99.90
3406;DHT22;10008;48.682;9.016;2023-08-24T05:56:47;20.80;99.90
3406;DHT22;10008;48.682;9.016;2023-08-24T05:59:14;20.90;99.90
3406;DHT22;10008;48.682;9.016;2023-08-24T06:01:41;21.20;99.90
3406;DHT22;10008;48.682;9.016;2023-08-24T06:04:10;21.20;99.90
3406;DHT22;10008;48.682;9.016;2023-08-24T06:06:36;21.30;99.90
3406;DHT22;10008;48.682;9.016;2023-08-24T06:09:03;21.30;99.90
3406;DHT22;10008;48.682;9.016;2023-08-24T06:11:32;21.30;99.90
3406;DHT22;10008;48.682;9.016;2023-08-24T06:13:58;21.30;99.90
3406;DHT22;10008;48.682;9.016;2023-08-24T06:16:24;21.40;99.90
3406;DHT22;10008;48.682;9.016;2023-08-24T06:18:50;21.40;99.90
3406;DHT22;10008;48.682;9.016;2023-08-24T06:21:16;21.40;99.90
3406;DHT22;10008;48.682;9.016;2023-08-24T06:23:42;21.40;99.90
3406;DHT22;10008;48.682;9.016;2023-08-24T06:26:09;21.40;99.90
3406;DHT22;10008;48.682;9.016;2023-08-24T06:28:35;21.50;99.90
3406;DHT22;10008;48.682;9.016;2023-08-24T06:31:01;21.40;99.90
3406;DHT22;10008;48.682;9.016;2023-08-24T06:33:27;21.60;99.90
3406;DHT22;10008;48.682;9.016;2023-08-24T06:35:57;21.70;99.90
3406;DHT22;10008;48.682;9.016;2023-08-24T06:38:23;21.60;99.90
3406;DHT22;10008;48.682;9.016;2023-08-24T06:40:48;21.60;99.90
3406;DHT22;10008;48.682;9.016;2023-08-24T06:43:14;21.70;99.90
3406;DHT22;10008;48.682;9.016;2023-08-24T06:45:41;21.70;99.90
3406;DHT22;10008;48.682;9.016;2023-08-24T06:48:06;21.60;99.90
3406;DHT22;10008;48.682;9.016;2023-08-24T06:50:35;21.50;99.90
3406;DHT22;10008;48.682;9.016;2023-08-24T06:53:05;21.50;99.90
3406;DHT22;10008;48.682;9.016;2023-08-24T06:55:31;21.40;99.90
3406;DHT22;10008;48.682;9.016;2023-08-24T06:57:57;21.40;99.90
3406;DHT22;10008;48.682;9.016;2023-08-24T07:00:23;21.40;99.90
3406;DHT22;10008;48.682;9.016;2023-08-24T07:02:50;21.40;99.90
3406;DHT22;10008;48.682;9.016;2023-08-24T07:05:16;21.40;99.90
3406;DHT22;10008;48.682;9.016;2023-08-24T07:07:49;21.60;99.90
3406;DHT22;10008;48.682;9.016;2023-08-24T07:10:15;21.80;99.90
3406;DHT22;10008;48.682;9.016;2023-08-24T07:12:41;21.90;99.90
3406;DHT22;10008;48.682;9.016;2023-08-24T07:15:10;22.00;99.90
3406;DHT22;10008;48.682;9.016;2023-08-24T07:17:36;22.10;99.90
3406;DHT22;10008;48.682;9.016;2023-08-24T07:20:03;22.40;99.90
3406;DHT22;10008;48.682;9.016;2023-08-24T07:22:31;22.60;99.90
3406;DHT22;10008;48.682;9.016;2023-08-24T07:24:57;23.00;99.90
3406;DHT22;10008;48.682;9.016;2023-08-24T07:27:22;23.70;99.90
3406;DHT22;10008;48.682;9.016;2023-08-24T07:29:48;24.90;99.90
3406;DHT22;10008;48.682;9.016;2023-08-24T07:32:14;26.70;99.90
3406;DHT22;10008;48.682;9.016;2023-08-24T07:34:40;28.10;99.90
3406;DHT22;10008;48.682;9.016;2023-08-24T07:37:05;29.10;96.40
3406;DHT22;10008;48.682;9.016;2023-08-24T07:39:32;29.20;94.70
3406;DHT22;10008;48.682;9.016;2023-08-24T07:41:58;29.80;93.30
3406;DHT22;10008;48.682;9.016;2023-08-24T07:44:23;30.60;92.60
3406;DHT22;10008;48.682;9.016;2023-08-24T07:46:49;31.70;90.60
3406;DHT22;10008;48.682;9.016;2023-08-24T07:49:15;32.60;90.90
3406;DHT22;10008;48.682;9.016;2023-08-24T07:51:41;33.10;88.40
3406;DHT22;10008;48.682;9.016;2023-08-24T07:54:08;33.20;88.40
3406;DHT22;10008;48.682;9.016;2023-08-24T07:56:34;33.60;88.20
3406;DHT22;10008;48.682;9.016;2023-08-24T07:59:00;33.70;85.80
3406;DHT22;10008;48.682;9.016;2023-08-24T08:01:26;33.70;86.60
3406;DHT22;10008;48.682;9.016;2023-08-24T08:03:52;33.60;83.70
3406;DHT22;10008;48.682;9.016;2023-08-24T08:06:18;33.80;84.90
3406;DHT22;10008;48.682;9.016;2023-08-24T08:08:44;34.20;81.40
3406;DHT22;10008;48.682;9.016;2023-08-24T08:11:12;34.30;78.00
3406;DHT22;10008;48.682;9.016;2023-08-24T08:13:37;33.70;81.00
3406;DHT22;10008;48.682;9.016;2023-08-24T08:16:04;34.80;78.70
3406;DHT22;10008;48.682;9.016;2023-08-24T08:18:32;35.30;74.90
3406;DHT22;10008;48.682;9.016;2023-08-24T08:20:57;36.40;76.60
3406;DHT22;10008;48.682;9.016;2023-08-24T08:23:23;36.70;73.20
3406;DHT22;10008;48.682;9.016;2023-08-24T08:25:49;36.40;70.80
3406;DHT22;10008;48.682;9.016;2023-08-24T08:28:16;35.80;77.60
3406;DHT22;10008;48.682;9.016;2023-08-24T08:30:43;36.50;73.60
3406;DHT22;10008;48.682;9.016;2023-08-24T08:33:09;36.90;72.90
3406;DHT22;10008;48.682;9.016;2023-08-24T08:35:35;36.10;71.20
3406;DHT22;10008;48.682;9.016;2023-08-24T08:38:01;36.10;69.80
3406;DHT22;10008;48.682;9.016;2023-08-24T08:40:29;36.10;71.40
3406;DHT22;10008;48.682;9.016;2023-08-24T08:42:57;36.60;67.70
3406;DHT22;10008;48.682;9.016;2023-08-24T08:45:25;36.60;69.70
3406;DHT22;10008;48.682;9.016;2023-08-24T08:47:58;35.90;67.80
3406;DHT22;10008;48.682;9.016;2023-08-24T08:50:25;36.20;69.60
3406;DHT22;10008;48.682;9.016;2023-08-24T08:52:51;36.60;69.10
3406;DHT22;10008;48.682;9.016;2023-08-24T08:55:17;36.80;69.90
3406;DHT22;10008;48.682;9.016;2023-08-24T08:57:47;37.20;66.70
3406;DHT22;10008;48.682;9.016;2023-08-24T09:00:15;37.50;65.30
3406;DHT22;10008;48.682;9.016;2023-08-24T09:02:45;37.80;65.40
3406;DHT22;10008;48.682;9.016;2023-08-24T09:05:14;38.30;64.80
3406;DHT22;10008;48.682;9.016;2023-08-24T09:07:40;38.70;64.20
3406;DHT22;10008;48.682;9.016;2023-08-24T09:10:07;39.00;62.70
3406;DHT22;10008;48.682;9.016;2023-08-24T09:12:33;38.80;61.30
3406;DHT22;10008;48.682;9.016;2023-08-24T09:14:59;38.50;60.70
3406;DHT22;10008;48.682;9.016;2023-08-24T09:17:26;38.60;61.00
3406;DHT22;10008;48.682;9.016;2023-08-24T09:19:57;38.40;63.20
3406;DHT22;10008;48.682;9.016;2023-08-24T09:22:23;38.70;64.00
3406;DHT22;10008;48.682;9.016;2023-08-24T09:24:49;39.20;61.50
3406;DHT22;10008;48.682;9.016;2023-08-24T09:27:19;38.90;59.50
3406;DHT22;10008;48.682;9.016;2023-08-24T09:29:52;38.50;60.80
3406;DHT22;10008;48.682;9.016;2023-08-24T09:32:29;38.40;61.20
3406;DHT22;10008;48.682;9.016;2023-08-24T09:34:55;38.30;61.70
3406;DHT22;10008;48.682;9.016;2023-08-24T09:37:21;38.10;61.10
3406;DHT22;10008;48.682;9.016;2023-08-24T09:39:47;38.00;62.10
3406;DHT22;10008;48.682;9.016;2023-08-24T09:42:13;38.10;61.90
3406;DHT22;10008;48.682;9.016;2023-08-24T09:44:45;38.60;61.30
3406;DHT22;10008;48.682;9.016;2023-08-24T09:47:11;38.90;59.90
3406;DHT22;10008;48.682;9.016;2023-08-24T09:49:37;38.90;59.10
3406;DHT22;10008;48.682;9.016;2023-08-24T09:52:07;38.70;59.20
3406;DHT22;10008;48.682;9.016;2023-08-24T09:54:36;38.60;58.70
3406;DHT22;10008;48.682;9.016;2023-08-24T09:57:02;38.20;59.40
3406;DHT22;10008;48.682;9.016;2023-08-24T09:59:31;38.40;61.20
3406;DHT22;10008;48.682;9.016;2023-08-24T10:02:00;39.00;62.70
3406;DHT22;10008;48.682;9.016;2023-08-24T10:04:34;39.20;61.10
3406;DHT22;10008;48.682;9.016;2023-08-24T10:07:06;38.90;59.30
3406;DHT22;10008;48.682;9.016;2023-08-24T10:09:39;38.70;62.10
3406;DHT22;10008;48.682;9.016;2023-08-24T10:12:08;39.10;59.60
3406;DHT22;10008;48.682;9.016;2023-08-24T10:14:58;38.60;59.80
3406;DHT22;10008;48.682;9.016;2023-08-24T10:17:24;37.70;60.70
3406;DHT22;10008;48.682;9.016;2023-08-24T10:19:51;37.80;61.30
3406;DHT22;10008;48.682;9.016;2023-08-24T10:22:19;38.00;61.00
3406;DHT22;10008;48.682;9.016;2023-08-24T10:24:49;38.50;60.40
3406;DHT22;10008;48.682;9.016;2023-08-24T10:27:16;38.60;59.10
3406;DHT22;10008;48.682;9.016;2023-08-24T10:29:43;38.80;60.10
3406;DHT22;10008;48.682;9.016;2023-08-24T10:32:09;39.30;58.80
3406;DHT22;10008;48.682;9.016;2023-08-24T10:34:35;39.40;58.80
3406;DHT22;10008;48.682;9.016;2023-08-24T10:37:11;39.70;58.10
3406;DHT22;10008;48.682;9.016;2023-08-24T10:39:43;39.60;57.80
3406;DHT22;10008;48.682;9.016;2023-08-24T10:42:10;39.70;58.60
3406;DHT22;10008;48.682;9.016;2023-08-24T10:44:38;40.10;57.50
3406;DHT22;10008;48.682;9.016;2023-08-24T10:47:14;40.20;57.10
3406;DHT22;10008;48.682;9.016;2023-08-24T10:49:41;39.90;58.10
3406;DHT22;10008;48.682;9.016;2023-08-24T10:52:30;38.70;60.20
3406;DHT22;10008;48.682;9.016;2023-08-24T10:54:56;38.20;59.90
3406;DHT22;10008;48.682;9.016;2023-08-24T10:57:26;38.30;63.40
3406;DHT22;10008;48.682;9.016;2023-08-24T11:00:11;38.50;63.20
3406;DHT22;10008;48.682;9.016;2023-08-24T11:02:46;38.10;61.10
3406;DHT22;10008;48.682;9.016;2023-08-24T11:05:26;37.60;62.40
3406;DHT22;10008;48.682;9.016;2023-08-24T11:08:00;38.30;61.80
3406;DHT22;10008;48.682;9.016;2023-08-24T11:10:33;38.80;60.50
3406;DHT22;10008;48.682;9.016;2023-08-24T11:15:37;39.80;59.00
3406;DHT22;10008;48.682;9.016;2023-08-24T11:20:55;40.20;58.60
3406;DHT22;10008;48.682;9.016;2023-08-24T11:23:22;40.00;58.80
3406;DHT22;10008;48.682;9.016;2023-08-24T11:25:51;40.50;59.90
3406;DHT22;10008;48.682;9.016;2023-08-24T11:28:22;40.20;60.80
3406;DHT22;10008;48.682;9.016;2023-08-24T11:30:48;40.10;57.40
3406;DHT22;10008;48.682;9.016;2023-08-24T11:33:14;40.40;59.00
3406;DHT22;10008;48.682;9.016;2023-08-24T11:35:44;40.80;58.80
3406;DHT22;10008;48.682;9.016;2023-08-24T11:38:11;41.40;56.30
3406;DHT22;10008;48.682;9.016;2023-08-24T11:40:37;41.30;55.70
3406;DHT22;10008;48.682;9.016;2023-08-24T11:43:04;40.70;56.60
3406;DHT22;10008;48.682;9.016;2023-08-24T11:45:35;41.30;57.40
3406;DHT22;10008;48.682;9.016;2023-08-24T11:48:03;41.80;55.30
3406;DHT22;10008;48.682;9.016;2023-08-24T11:50:31;41.80;54.70
3406;DHT22;10008;48.682;9.016;2023-08-24T11:52:57;41.60;55.40
3406;DHT22;10008;48.682;9.016;2023-08-24T11:55:24;41.30;57.50
3406;DHT22;10008;48.682;9.016;2023-08-24T11:57:50;40.30;57.70
3406;DHT22;10008;48.682;9.016;2023-08-24T12:00:18;39.90;56.90
3406;DHT22;10008;48.682;9.016;2023-08-24T12:02:45;39.60;57.80
3406;DHT22;10008;48.682;9.016;2023-08-24T12:05:22;39.90;59.00
3406;DHT22;10008;48.682;9.016;2023-08-24T12:07:48;39.80;59.10
3406;DHT22;10008;48.682;9.016;2023-08-24T12:10:13;39.50;60.10
3406;DHT22;10008;48.682;9.016;2023-08-24T12:12:39;39.30;59.70
3406;DHT22;10008;48.682;9.016;2023-08-24T12:15:05;38.30;61.00
3406;DHT22;10008;48.682;9.016;2023-08-24T12:17:42;38.10;61.60
3406;DHT22;10008;48.682;9.016;2023-08-24T12:20:20;38.80;61.20
3406;DHT22;10008;48.682;9.016;2023-08-24T12:22:51;39.20;59.50
3406;DHT22;10008;48.682;9.016;2023-08-24T12:25:17;39.50;58.60
3406;DHT22;10008;48.682;9.016;2023-08-24T12:27:43;40.00;59.50
3406;DHT22;10008;48.682;9.016;2023-08-24T12:30:10;39.50;59.10
3406;DHT22;10008;48.682;9.016;2023-08-24T12:32:43;39.20;59.50
3406;DHT22;10008;48.682;9.016;2023-08-24T12:35:10;39.30;58.80
3406;DHT22;10008;48.682;9.016;2023-08-24T12:37:36;40.00;60.20
3406;DHT22;10008;48.682;9.016;2023-08-24T12:40:05;40.20;59.50
3406;DHT22;10008;48.682;9.016;2023-08-24T12:42:31;40.50;58.70
3406;DHT22;10008;48.682;9.016;2023-08-24T12:44:57;41.10;55.90
3406;DHT22;10008;48.682;9.016;2023-08-24T12:47:23;41.10;56.00
3406;DHT22;10008;48.682;9.016;2023-08-24T12:49:49;40.90;55.30
3406;DHT22;10008;48.682;9.016;2023-08-24T12:52:16;41.10;56.80
3406;DHT22;10008;48.682;9.016;2023-08-24T12:54:42;41.10;55.90
3406;DHT22;10008;48.682;9.016;2023-08-24T12:57:08;40.80;54.90
3406;DHT22;10008;48.682;9.016;2023-08-24T12:59:34;40.80;56.70
3406;DHT22;10008;48.682;9.016;2023-08-24T13:02:00;40.80;54.80
3406;DHT22;10008;48.682;9.016;2023-08-24T13:04:26;41.20;56.00
3406;DHT22;10008;48.682;9.016;2023-08-24T13:06:53;40.90;54.90
3406;DHT22;10008;48.682;9.016;2023-08-24T13:09:19;40.80;57.10
3406;DHT22;10008;48.682;9.016;2023-08-24T13:11:45;40.30;57.00
3406;DHT22;10008;48.682;9.016;2023-08-24T13:14:10;39.80;57.10
3406;DHT22;10008;48.682;9.016;2023-08-24T13:16:37;39.40;56.20
3406;DHT22;10008;48.682;9.016;2023-08-24T13:19:02;39.30;56.20
3406;DHT22;10008;48.682;9.016;2023-08-24T13:21:28;39.60;56.40
3406;DHT22;10008;48.682;9.016;2023-08-24T13:23:54;39.70;57.00
3406;DHT22;10008;48.682;9.016;2023-08-24T13:26:20;39.50;56.80
3406;DHT22;10008;48.682;9.016;2023-08-24T13:28:49;39.50;56.10
3406;DHT22;10008;48.682;9.016;2023-08-24T13:31:16;39.00;56.40
3406;DHT22;10008;48.682;9.016;2023-08-24T13:33:42;38.50;56.70
3406;DHT22;10008;48.682;9.016;2023-08-24T13:36:07;38.60;57.10
3406;DHT22;10008;48.682;9.016;2023-08-24T13:38:33;38.90;57.50
3406;DHT22;10008;48.682;9.016;2023-08-24T13:40:59;39.00;58.70
3406;DHT22;10008;48.682;9.016;2023-08-24T13:43:25;38.40;58.60
3406;DHT22;10008;48.682;9.016;2023-08-24T13:45:51;37.80;57.90
3406;DHT22;10008;48.682;9.016;2023-08-24T13:48:16;37.60;56.50
3406;DHT22;10008;48.682;9.016;2023-08-24T13:50:49;37.60;61.00
3406;DHT22;10008;48.682;9.016;2023-08-24T13:53:16;37.80;59.80
3406;DHT22;10008;48.682;9.016;2023-08-24T13:55:41;37.40;61.30
3406;DHT22;10008;48.682;9.016;2023-08-24T13:58:08;36.90;62.20
3406;DHT22;10008;48.682;9.016;2023-08-24T14:00:34;36.90;63.10
3406;DHT22;10008;48.682;9.016;2023-08-24T14:03:00;36.20;62.80
3406;DHT22;10008;48.682;9.016;2023-08-24T14:05:25;35.70;63.80
3406;DHT22;10008;48.682;9.016;2023-08-24T14:07:51;35.30;67.00
3406;DHT22;10008;48.682;9.016;2023-08-24T14:10:17;35.10;69.40
3406;DHT22;10008;48.682;9.016;2023-08-24T14:12:43;35.00;68.40
3406;DHT22;10008;48.682;9.016;2023-08-24T14:15:09;34.90;68.50
3406;DHT22;10008;48.682;9.016;2023-08-24T14:17:35;34.80;68.00
3406;DHT22;10008;48.682;9.016;2023-08-24T14:20:01;34.90;67.30
3406;DHT22;10008;48.682;9.016;2023-08-24T14:22:29;34.80;71.00
3406;DHT22;10008;48.682;9.016;2023-08-24T14:24:55;34.80;67.20
3406;DHT22;10008;48.682;9.016;2023-08-24T14:27:21;34.60;68.20
3406;DHT22;10008;48.682;9.016;2023-08-24T14:29:46;34.40;68.80
3406;DHT22;10008;48.682;9.016;2023-08-24T14:32:12;34.30;69.10
3406;DHT22;10008;48.682;9.016;2023-08-24T14:34:38;34.00;70.80
3406;DHT22;10008;48.682;9.016;2023-08-24T14:37:04;33.80;75.00
3406;DHT22;10008;48.682;9.016;2023-08-24T14:39:29;33.50;75.20
3406;DHT22;10008;48.682;9.016;2023-08-24T14:41:55;33.10;74.70
3406;DHT22;10008;48.682;9.016;2023-08-24T14:44:21;32.80;74.90
3406;DHT22;10008;48.682;9.016;2023-08-24T14:46:46;32.70;77.00
3406;DHT22;10008;48.682;9.016;2023-08-24T14:49:12;32.50;75.50
3406;DHT22;10008;48.682;9.016;2023-08-24T14:51:44;32.40;76.50
3406;DHT22;10008;48.682;9.016;2023-08-24T14:54:10;32.30;77.70
3406;DHT22;10008;48.682;9.016;2023-08-24T14:56:38;32.10;77.70
3406;DHT22;10008;48.682;9.016;2023-08-24T14:59:04;31.80;80.30
3406;DHT22;10008;48.682;9.016;2023-08-24T15:01:30;31.30;86.40
3406;DHT22;10008;48.682;9.016;2023-08-24T15:03:55;30.40;91.80
3406;DHT22;10008;48.682;9.016;2023-08-24T15:06:22;29.80;98.80
3406;DHT22;10008;48.682;9.016;2023-08-24T15:08:47;29.00;99.90
3406;DHT22;10008;48.682;9.016;2023-08-24T15:11:15;28.30;99.90
3406;DHT22;10008;48.682;9.016;2023-08-24T15:13:41;27.90;99.90
3406;DHT22;10008;48.682;9.016;2023-08-24T15:16:08;27.70;99.90
3406;DHT22;10008;48.682;9.016;2023-08-24T15:18:35;27.30;99.90
3406;DHT22;10008;48.682;9.016;2023-08-24T15:21:01;27.20;99.90
3406;DHT22;10008;48.682;9.016;2023-08-24T15:23:30;27.10;99.90
3406;DHT22;10008;48.682;9.016;2023-08-24T15:25:58;27.00;99.90
3406;DHT22;10008;48.682;9.016;2023-08-24T15:28:24;26.90;99.90
3406;DHT22;10008;48.682;9.016;2023-08-24T15:30:50;26.80;99.90
3406;DHT22;10008;48.682;9.016;2023-08-24T15:33:19;26.70;99.90
3406;DHT22;10008;48.682;9.016;2023-08-24T15:35:46;26.60;99.90
3406;DHT22;10008;48.682;9.016;2023-08-24T15:38:12;26.60;99.90
3406;DHT22;10008;48.682;9.016;2023-08-24T15:40:38;26.70;99.90
3406;DHT22;10008;48.682;9.016;2023-08-24T15:43:05;26.80;99.90
3406;DHT22;10008;48.682;9.016;2023-08-24T15:45:32;26.70;99.90
3406;DHT22;10008;48.682;9.016;2023-08-24T15:47:59;26.70;99.90
3406;DHT22;10008;48.682;9.016;2023-08-24T15:50:25;26.80;99.90
3406;DHT22;10008;48.682;9.016;2023-08-24T15:52:51;26.70;99.90